Time;durP1;ratioP1;P1;durP2;ratioP2;P2;SDS_P1;SDS_P2;PMS_P1;PMS_P2;Temp;Humidity;BMP_temperature;BMP_pressure;BME280_temperature;BME280_humidity;BME280_pressure;Samples;Min_cycle;Max_cycle;Signal;HPM_P1;HPM_P2
2022/06/13 00:01:55;;;;;;;3.38;2.78;;;22.20;68.10;;;;;;5015664;28;20064;-65
2022/06/13 00:04:21;;;;;;;4.90;3.05;;;22.20;67.40;;;;;;5014937;28;20076;-65
2022/06/13 00:06:47;;;;;;;3.20;2.90;;;22.20;68.20;;;;;;5016884;28;20121;-65
2022/06/13 00:09:13;;;;;;;2.70;2.50;;;22.10;68.50;;;;;;5016813;28;20502;-65
2022/06/13 00:11:39;;;;;;;4.82;3.00;;;22.00;68.50;;;;;;5015129;28;20124;-65
2022/06/13 00:14:05;;;;;;;4.13;2.88;;;22.00;68.80;;;;;;5016084;28;20048;-65
2022/06/13 00:16:31;;;;;;;3.75;2.60;;;21.80;69.40;;;;;;5015982;28;20032;-65
2022/06/13 00:18:57;;;;;;;4.40;2.83;;;21.70;69.80;;;;;;5015748;28;20045;-65
2022/06/13 00:21:28;;;;;;;3.67;2.70;;;21.60;70.10;;;;;;5015668;28;20040;-65
2022/06/13 00:23:54;;;;;;;3.75;2.45;;;21.60;71.10;;;;;;5015562;28;20057;-66
2022/06/13 00:26:22;;;;;;;4.90;2.35;;;21.50;70.90;;;;;;5016175;28;20497;-66
2022/06/13 00:28:49;;;;;;;3.05;2.67;;;21.50;71.50;;;;;;5017072;28;20061;-66
2022/06/13 00:31:15;;;;;;;6.13;2.70;;;21.50;71.80;;;;;;5015459;28;20039;-66
2022/06/13 00:33:41;;;;;;;3.22;2.33;;;21.40;71.60;;;;;;5015509;28;20628;-66
2022/06/13 00:36:08;;;;;;;2.47;2.28;;;21.40;71.70;;;;;;5016955;28;20072;-64
2022/06/13 00:38:33;;;;;;;3.50;2.75;;;21.30;71.70;;;;;;5017320;28;20093;-66
2022/06/13 00:40:59;;;;;;;3.42;2.63;;;21.40;71.70;;;;;;5015276;28;20607;-66
2022/06/13 00:43:25;;;;;;;3.58;2.58;;;21.30;71.70;;;;;;5014923;28;20065;-66
2022/06/13 00:45:50;;;;;;;3.67;2.60;;;21.40;72.00;;;;;;5017810;28;20068;-65
2022/06/13 00:48:20;;;;;;;2.90;2.67;;;21.40;72.00;;;;;;5014254;28;20034;-66
2022/06/13 00:50:53;;;;;;;2.70;2.50;;;21.40;72.30;;;;;;5015346;28;20228;-66
2022/06/13 00:53:24;;;;;;;4.95;2.50;;;21.40;72.80;;;;;;5013359;28;20051;-66
2022/06/13 00:55:56;;;;;;;3.60;2.45;;;21.50;72.80;;;;;;5016844;28;20087;-66
2022/06/13 00:58:22;;;;;;;3.35;2.67;;;21.50;73.00;;;;;;5015544;28;20041;-66
2022/06/13 01:00:52;;;;;;;4.13;2.22;;;21.50;72.40;;;;;;5016304;28;20048;-66
2022/06/13 01:03:18;;;;;;;3.22;2.63;;;21.40;72.20;;;;;;5016541;28;20064;-66
2022/06/13 01:05:47;;;;;;;3.08;2.88;;;21.40;72.20;;;;;;5014187;28;21398;-66
2022/06/13 01:08:13;;;;;;;4.18;3.33;;;21.30;72.70;;;;;;5016249;28;20393;-66
2022/06/13 01:13:40;;;;;;;5.38;3.20;;;21.20;74.00;;;;;;5013912;28;20048;-65
2022/06/13 01:16:52;;;;;;;5.15;3.28;;;21.10;74.80;;;;;;5014505;28;20046;-65
2022/06/13 01:19:23;;;;;;;3.00;2.70;;;21.00;76.60;;;;;;4982221;28;20034;-66
2022/06/13 01:22:07;;;;;;;3.35;2.97;;;21.00;74.30;;;;;;5014811;28;20517;-66
2022/06/13 01:24:45;;;;;;;4.15;3.42;;;21.00;76.30;;;;;;5014867;28;20564;-66
2022/06/13 01:27:27;;;;;;;3.47;3.17;;;20.90;76.30;;;;;;5011365;28;20532;-66
2022/06/13 01:30:30;;;;;;;4.85;3.72;;;20.90;75.30;;;;;;5011675;28;20083;-63
2022/06/13 01:33:18;;;;;;;3.72;3.45;;;20.90;77.30;;;;;;5014900;28;20044;-66
2022/06/13 01:36:01;;;;;;;3.97;3.28;;;20.80;76.50;;;;;;5016849;28;20116;-66
2022/06/13 01:39:11;;;;;;;3.88;3.58;;;20.70;77.00;;;;;;5015365;28;20044;-66
2022/06/13 01:42:01;;;;;;;3.63;3.20;;;20.70;77.90;;;;;;5015876;28;20041;-65
2022/06/13 01:44:51;;;;;;;3.70;3.38;;;20.70;77.90;;;;;;5012522;28;20547;-66
2022/06/13 01:47:42;;;;;;;3.42;3.08;;;20.70;76.70;;;;;;5013619;28;20030;-65
2022/06/13 01:50:20;;;;;;;3.00;2.70;;;20.70;76.90;;;;;;5013931;28;20452;-66
2022/06/13 01:53:06;;;;;;;2.90;2.70;;;20.60;76.20;;;;;;5013633;28;20033;-66
2022/06/13 01:55:47;;;;;;;3.40;2.30;;;20.70;76.80;;;;;;5016755;28;20179;-66
2022/06/13 01:58:15;;;;;;;2.50;2.30;;;20.60;76.30;;;;;;5012521;28;20128;-66
2022/06/13 02:00:53;;;;;;;2.85;2.22;;;20.60;75.10;;;;;;5013514;28;20030;-66
2022/06/13 02:03:39;;;;;;;2.20;1.98;;;20.60;76.00;;;;;;5012440;28;20100;-66
2022/06/13 02:06:14;;;;;;;2.53;1.90;;;20.70;76.80;;;;;;5013931;28;20037;-66
2022/06/13 02:08:50;;;;;;;2.25;2.13;;;20.70;75.80;;;;;;5013274;28;20619;-66
2022/06/13 02:11:27;;;;;;;2.15;2.03;;;20.70;75.80;;;;;;5012007;28;20121;-67
2022/06/13 02:14:22;;;;;;;2.03;1.90;;;20.70;75.00;;;;;;5016744;28;20041;-66
2022/06/13 02:17:08;;;;;;;2.40;2.20;;;20.70;76.10;;;;;;5013530;28;20386;-66
2022/06/13 02:19:43;;;;;;;1.67;1.58;;;20.70;75.70;;;;;;5012973;28;20038;-66
2022/06/13 02:22:15;;;;;;;1.98;1.88;;;20.70;75.10;;;;;;5015463;28;20056;-66
2022/06/13 02:24:47;;;;;;;2.65;1.95;;;20.70;74.90;;;;;;5013048;28;20041;-66
2022/06/13 02:27:15;;;;;;;2.95;1.92;;;20.70;74.80;;;;;;5013072;28;20088;-66
2022/06/13 02:29:48;;;;;;;2.58;2.15;;;20.70;74.60;;;;;;5013471;28;20025;-66
2022/06/13 02:32:19;;;;;;;2.45;2.13;;;20.70;75.30;;;;;;5013059;28;20037;-65
2022/06/13 02:35:08;;;;;;;2.55;2.25;;;20.70;74.90;;;;;;5016134;28;20029;-66
2022/06/13 02:37:39;;;;;;;3.67;2.45;;;20.70;75.30;;;;;;5012436;28;20129;-66
2022/06/13 02:40:11;;;;;;;3.38;2.97;;;20.70;75.60;;;;;;5012726;28;20048;-66
2022/06/13 02:42:48;;;;;;;2.75;2.55;;;20.70;76.00;;;;;;5012280;28;20041;-66
2022/06/13 02:45:29;;;;;;;3.60;2.35;;;20.70;75.70;;;;;;5012867;28;20085;-66
2022/06/13 02:48:30;;;;;;;2.55;2.35;;;20.70;75.80;;;;;;5013082;28;20060;-66
2022/06/13 02:51:19;;;;;;;4.57;2.63;;;20.70;74.90;;;;;;4998757;28;21826;-65
2022/06/13 02:53:49;;;;;;;2.65;2.45;;;20.70;75.40;;;;;;5011936;28;20041;-66
2022/06/13 02:56:33;;;;;;;3.28;2.47;;;20.70;74.90;;;;;;5013533;28;20037;-66
2022/06/13 02:59:25;;;;;;;2.72;2.53;;;20.60;75.30;;;;;;5011354;28;20040;-66
2022/06/13 03:01:55;;;;;;;3.40;2.42;;;20.60;76.50;;;;;;5014633;28;20057;-66
2022/06/13 03:04:33;;;;;;;2.80;2.40;;;20.60;75.50;;;;;;5013704;28;20563;-66
2022/06/13 03:07:18;;;;;;;2.60;2.40;;;20.60;75.60;;;;;;5013196;28;20034;-66
2022/06/13 03:10:10;;;;;;;2.70;2.35;;;20.60;76.50;;;;;;5013644;28;20058;-66
2022/06/13 03:12:53;;;;;;;3.67;2.30;;;20.60;76.30;;;;;;5007710;28;20046;-65
2022/06/13 03:15:33;;;;;;;2.95;2.50;;;20.60;76.10;;;;;;5013437;28;20034;-65
2022/06/13 03:18:11;;;;;;;3.55;2.35;;;20.60;76.30;;;;;;5013109;28;20033;-66
2022/06/13 03:21:12;;;;;;;2.50;2.30;;;20.60;76.00;;;;;;5010953;28;20134;-65
2022/06/13 03:23:46;;;;;;;4.40;2.67;;;20.50;76.80;;;;;;5014195;28;20033;-66
2022/06/13 03:26:21;;;;;;;3.17;2.03;;;20.50;76.30;;;;;;5012925;28;20397;-66
2022/06/13 03:28:54;;;;;;;2.65;2.45;;;20.50;76.30;;;;;;5014888;28;20057;-66
2022/06/13 03:31:40;;;;;;;2.75;2.50;;;20.40;76.20;;;;;;5017037;28;20512;-66
2022/06/13 03:34:10;;;;;;;3.05;2.20;;;20.40;77.60;;;;;;5015132;28;20042;-66
2022/06/13 03:36:37;;;;;;;2.60;2.40;;;20.30;76.70;;;;;;5013499;28;20441;-65
2022/06/13 03:39:27;;;;;;;3.97;2.53;;;20.20;76.80;;;;;;5014958;28;20056;-65
2022/06/13 03:42:04;;;;;;;2.60;2.40;;;20.10;78.40;;;;;;5016948;28;20048;-66
2022/06/13 03:44:56;;;;;;;5.30;2.63;;;20.10;77.90;;;;;;5024888;28;20041;-66
2022/06/13 03:47:29;;;;;;;3.35;2.97;;;20.10;78.00;;;;;;5012848;28;20042;-66
2022/06/13 03:50:07;;;;;;;2.90;2.60;;;20.00;77.90;;;;;;5014992;28;20128;-65
2022/06/13 03:52:36;;;;;;;2.88;2.60;;;20.00;78.20;;;;;;5010937;28;20129;-66
2022/06/13 03:55:12;;;;;;;2.92;2.67;;;20.00;77.90;;;;;;5016663;28;20030;-66
2022/06/13 03:57:55;;;;;;;3.28;2.97;;;19.90;78.70;;;;;;5014927;28;20034;-65
2022/06/13 04:00:26;;;;;;;3.50;3.20;;;19.90;79.10;;;;;;5016128;28;20450;-66
2022/06/13 04:02:54;;;;;;;3.53;3.22;;;19.90;78.30;;;;;;5015138;28;20037;-65
2022/06/13 04:05:25;;;;;;;4.07;2.75;;;19.90;78.20;;;;;;5017186;28;20461;-66
2022/06/13 04:07:51;;;;;;;3.15;2.38;;;19.90;78.70;;;;;;5018683;28;20045;-66
2022/06/13 04:10:18;;;;;;;3.72;2.70;;;20.00;78.20;;;;;;5015042;28;20030;-66
2022/06/13 04:13:12;;;;;;;2.90;2.60;;;20.00;78.40;;;;;;5014160;28;20045;-66
2022/06/13 04:16:01;;;;;;;2.70;2.50;;;20.00;79.30;;;;;;5014926;28;20065;-65
2022/06/13 04:18:49;;;;;;;3.00;2.80;;;20.00;78.80;;;;;;5012960;28;20493;-65
2022/06/13 04:21:42;;;;;;;8.73;7.82;;;20.10;78.70;;;;;;5017148;28;20406;-66
2022/06/13 04:24:25;;;;;;;7.82;6.45;;;20.10;78.40;;;;;;5015049;28;20112;-66
2022/06/13 04:26:54;;;;;;;5.47;4.85;;;20.10;77.90;;;;;;5011051;28;21419;-66
2022/06/13 04:29:43;;;;;;;3.08;2.88;;;20.10;77.60;;;;;;5014793;28;20050;-68
2022/06/13 04:32:16;;;;;;;2.33;2.10;;;20.20;78.40;;;;;;5012700;28;20049;-67
2022/06/13 04:34:47;;;;;;;2.22;2.10;;;20.20;78.70;;;;;;5014438;28;20037;-68
2022/06/13 04:37:15;;;;;;;2.78;1.92;;;20.20;77.60;;;;;;5017369;28;20037;-68
2022/06/13 04:39:43;;;;;;;2.60;2.40;;;20.20;77.40;;;;;;5016386;28;20041;-66
2022/06/13 04:42:10;;;;;;;2.88;2.35;;;20.20;77.50;;;;;;5017225;28;20044;-66
2022/06/13 04:44:37;;;;;;;2.40;2.08;;;20.30;77.40;;;;;;5015739;28;20034;-66
2022/06/13 04:47:05;;;;;;;2.20;2.00;;;20.20;77.30;;;;;;5018776;28;20057;-66
2022/06/13 04:49:47;;;;;;;3.05;1.70;;;20.30;77.50;;;;;;5016296;28;20038;-67
2022/06/13 04:52:23;;;;;;;1.98;1.63;;;20.30;78.30;;;;;;5023048;28;20196;-66
2022/06/13 04:54:55;;;;;;;2.95;2.05;;;20.30;77.80;;;;;;5015106;28;20117;-66
2022/06/13 04:57:21;;;;;;;2.15;2.00;;;20.30;77.30;;;;;;5016605;28;20041;-66
2022/06/13 04:59:47;;;;;;;1.80;1.70;;;20.30;77.30;;;;;;5017808;28;20034;-66
2022/06/13 05:02:17;;;;;;;2.25;1.80;;;20.40;77.40;;;;;;5017775;28;20038;-66
2022/06/13 05:04:43;;;;;;;1.75;1.60;;;20.40;77.40;;;;;;5014359;28;20038;-66
2022/06/13 05:07:15;;;;;;;1.77;1.67;;;20.40;77.30;;;;;;5018829;28;20468;-66
2022/06/13 05:09:55;;;;;;;1.92;1.67;;;20.30;77.50;;;;;;5018078;28;20123;-66
2022/06/13 05:12:24;;;;;;;5.97;1.77;;;20.30;77.30;;;;;;5014909;28;20033;-68
2022/06/13 05:15:09;;;;;;;1.92;1.65;;;20.40;77.20;;;;;;5014877;28;20056;-68
2022/06/13 05:17:44;;;;;;;1.73;1.60;;;20.40;77.10;;;;;;5017680;28;20029;-66
2022/06/13 05:20:47;;;;;;;2.58;1.90;;;20.40;77.30;;;;;;5016142;28;20404;-66
2022/06/13 05:23:34;;;;;;;15.45;8.20;;;20.40;78.00;;;;;;5017924;28;20030;-66
2022/06/13 05:26:01;;;;;;;2.95;2.38;;;20.40;77.90;;;;;;5022336;28;20030;-66
2022/06/13 05:28:30;;;;;;;3.03;2.45;;;20.50;77.10;;;;;;5015178;28;20030;-66
2022/06/13 05:30:59;;;;;;;2.22;1.85;;;20.40;77.40;;;;;;5014585;28;20038;-66
2022/06/13 05:33:42;;;;;;;4.85;1.92;;;20.50;77.30;;;;;;5016639;28;20041;-66
2022/06/13 05:36:12;;;;;;;2.92;1.70;;;20.50;77.50;;;;;;5015531;28;20532;-66
2022/06/13 05:38:48;;;;;;;4.47;1.83;;;20.50;77.30;;;;;;5014354;28;20044;-66
2022/06/13 05:41:14;;;;;;;3.28;2.55;;;20.40;77.70;;;;;;5016535;28;20052;-66
2022/06/13 05:43:40;;;;;;;3.38;2.00;;;20.50;77.70;;;;;;5010015;28;20038;-66
2022/06/13 05:46:07;;;;;;;1.70;1.60;;;20.50;77.70;;;;;;5016732;28;20038;-65
2022/06/13 05:48:33;;;;;;;3.85;2.20;;;20.50;77.50;;;;;;5015671;28;20034;-67
2022/06/13 05:50:59;;;;;;;2.42;1.90;;;20.50;77.50;;;;;;5016164;28;20041;-66
2022/06/13 05:53:25;;;;;;;12.57;2.55;;;20.50;77.40;;;;;;5016957;28;20048;-67
2022/06/13 05:55:56;;;;;;;8.82;2.75;;;20.40;77.40;;;;;;5014424;28;20041;-66
2022/06/13 05:58:24;;;;;;;15.50;2.60;;;20.40;77.70;;;;;;5017924;28;20069;-66
2022/06/13 06:00:53;;;;;;;5.00;1.70;;;20.30;76.80;;;;;;5014625;28;20026;-66
2022/06/13 06:03:19;;;;;;;3.42;1.90;;;20.30;76.30;;;;;;5016657;28;20034;-66
2022/06/13 06:05:45;;;;;;;2.85;1.50;;;20.20;76.00;;;;;;5015836;28;20037;-67
2022/06/13 06:08:33;;;;;;;2.05;1.70;;;20.10;75.70;;;;;;5017925;28;20029;-66
2022/06/13 06:10:59;;;;;;;4.32;1.88;;;20.10;76.10;;;;;;5015000;28;20378;-66
2022/06/13 06:13:27;;;;;;;2.90;2.00;;;20.00;75.60;;;;;;5016392;28;20042;-66
2022/06/13 06:15:54;;;;;;;3.03;1.73;;;19.90;75.60;;;;;;5011658;28;20030;-66
2022/06/13 06:18:21;;;;;;;5.10;2.00;;;19.90;75.30;;;;;;5014738;28;20052;-66
2022/06/13 06:20:46;;;;;;;4.30;2.08;;;19.80;75.40;;;;;;5015154;28;20061;-65
2022/06/13 06:23:12;;;;;;;2.55;2.00;;;19.70;75.60;;;;;;5013988;28;20072;-66
2022/06/13 06:25:39;;;;;;;2.42;1.90;;;19.60;76.10;;;;;;5016356;28;20272;-66
2022/06/13 06:28:06;;;;;;;2.65;2.08;;;19.60;76.20;;;;;;5016795;28;20053;-66
2022/06/13 06:30:34;;;;;;;3.33;2.22;;;19.60;76.10;;;;;;5012460;28;20677;-67
2022/06/13 06:33:00;;;;;;;14.98;3.58;;;19.50;76.10;;;;;;5013308;28;20045;-66
2022/06/13 06:35:28;;;;;;;2.45;2.10;;;19.50;76.00;;;;;;5015982;28;20141;-66
2022/06/13 06:37:55;;;;;;;6.13;2.28;;;19.50;76.10;;;;;;5016998;28;20512;-66
2022/06/13 06:40:23;;;;;;;3.15;2.05;;;19.50;76.10;;;;;;5017024;28;20501;-66
2022/06/13 06:42:50;;;;;;;4.40;2.25;;;19.50;76.10;;;;;;5017260;28;20585;-66
2022/06/13 06:45:15;;;;;;;3.03;2.20;;;19.50;76.30;;;;;;5016869;28;20444;-66
2022/06/13 06:47:41;;;;;;;3.72;2.42;;;19.60;76.10;;;;;;5012434;28;20037;-66
2022/06/13 06:50:13;;;;;;;2.25;2.05;;;19.60;76.00;;;;;;5017239;28;20068;-66
2022/06/13 06:52:39;;;;;;;2.45;2.20;;;19.60;75.80;;;;;;5011458;28;20520;-66
2022/06/13 07:00:37;;;;;;;5.67;2.60;;;19.80;74.20;;;;;;5012118;28;20065;-66
2022/06/13 07:03:02;;;;;;;4.32;2.38;;;19.80;74.30;;;;;;5014837;28;20065;-67
2022/06/13 07:05:28;;;;;;;5.78;2.30;;;19.80;73.50;;;;;;5016012;28;20586;-66
2022/06/13 07:07:54;;;;;;;5.03;2.42;;;19.80;72.10;;;;;;5016484;28;20504;-66
2022/06/13 07:10:19;;;;;;;4.35;2.03;;;19.70;71.80;;;;;;5014640;28;20030;-66
2022/06/13 07:12:45;;;;;;;5.38;2.40;;;19.70;72.00;;;;;;5012279;28;20037;-66
2022/06/13 07:15:13;;;;;;;5.88;2.35;;;19.70;72.30;;;;;;5014078;28;20124;-66
2022/06/13 07:17:39;;;;;;;4.32;2.47;;;19.70;72.00;;;;;;5013887;28;20045;-66
2022/06/13 07:20:05;;;;;;;4.45;2.53;;;19.70;71.70;;;;;;5013914;28;20045;-66
2022/06/13 07:22:31;;;;;;;4.65;2.58;;;19.60;71.70;;;;;;5015260;28;20505;-65
2022/06/13 07:24:56;;;;;;;6.13;2.40;;;19.60;71.80;;;;;;5014309;28;20103;-66
2022/06/13 07:27:22;;;;;;;4.75;2.40;;;19.70;71.00;;;;;;5014489;28;20060;-66
2022/06/13 07:29:47;;;;;;;4.15;2.30;;;19.60;70.80;;;;;;5018689;28;20508;-67
2022/06/13 07:32:25;;;;;;;5.63;2.85;;;19.60;70.90;;;;;;5016368;28;20037;-65
2022/06/13 07:34:52;;;;;;;3.47;2.63;;;19.60;69.50;;;;;;5017921;28;20566;-67
2022/06/13 07:40:10;;;;;;;12.73;3.03;;;19.50;69.10;;;;;;5018731;28;20044;-66
2022/06/13 07:42:48;;;;;;;11.77;3.40;;;19.50;70.20;;;;;;5019403;28;20264;-66
2022/06/13 07:45:20;;;;;;;13.40;3.50;;;19.50;69.10;;;;;;5018235;28;20493;-66
2022/06/13 07:47:46;;;;;;;4.68;2.47;;;19.60;69.90;;;;;;5016919;28;20034;-66
2022/06/13 07:50:15;;;;;;;7.35;2.72;;;19.70;68.00;;;;;;5018169;28;20429;-66
2022/06/13 07:52:41;;;;;;;5.57;1.92;;;19.70;67.90;;;;;;5015316;28;20037;-66
2022/06/13 07:55:07;;;;;;;5.85;2.30;;;19.70;68.30;;;;;;5014934;28;20034;-66
2022/06/13 07:57:33;;;;;;;5.80;2.20;;;19.80;66.20;;;;;;5018138;28;20664;-66
2022/06/13 07:59:59;;;;;;;4.60;2.15;;;19.80;65.50;;;;;;5017578;28;20460;-66
2022/06/13 08:02:29;;;;;;;6.28;2.42;;;19.80;65.90;;;;;;5017952;28;20507;-66
2022/06/13 08:04:55;;;;;;;6.82;2.30;;;19.80;65.50;;;;;;5018636;28;20530;-66
2022/06/13 08:07:21;;;;;;;5.78;2.60;;;19.80;65.70;;;;;;5018659;28;20522;-66
2022/06/13 08:09:47;;;;;;;5.18;2.10;;;19.80;66.00;;;;;;5017288;28;20061;-66
2022/06/13 08:12:16;;;;;;;5.25;2.38;;;19.90;66.00;;;;;;5017360;28;20420;-67
2022/06/13 08:14:45;;;;;;;5.65;1.90;;;19.90;65.70;;;;;;5018468;28;20041;-66
2022/06/13 08:17:12;;;;;;;5.30;2.30;;;19.90;65.00;;;;;;5018066;28;20026;-66
2022/06/13 08:19:38;;;;;;;10.15;3.00;;;20.00;64.90;;;;;;5014833;28;21257;-66
2022/06/13 08:22:04;;;;;;;6.15;2.60;;;20.10;64.00;;;;;;5019693;28;20038;-66
2022/06/13 08:24:29;;;;;;;5.60;2.22;;;20.20;64.70;;;;;;5016666;28;20349;-66
2022/06/13 08:26:55;;;;;;;3.55;2.40;;;20.30;64.80;;;;;;5015344;28;20045;-66
2022/06/13 08:29:20;;;;;;;8.75;2.33;;;20.30;63.90;;;;;;5020088;28;20041;-66
2022/06/13 08:31:46;;;;;;;7.00;2.08;;;20.40;63.60;;;;;;5014827;28;20064;-66
2022/06/13 08:34:12;;;;;;;6.20;2.10;;;20.50;63.40;;;;;;5018927;28;20026;-66
2022/06/13 08:36:38;;;;;;;3.95;2.00;;;20.60;62.70;;;;;;5017049;28;20034;-66
2022/06/13 08:39:04;;;;;;;6.90;2.00;;;20.70;62.90;;;;;;5016991;28;22353;-66
2022/06/13 08:41:42;;;;;;;5.50;2.05;;;20.80;61.90;;;;;;5015584;28;20053;-66
2022/06/13 08:44:47;;;;;;;8.93;2.05;;;20.90;61.60;;;;;;5017874;28;20444;-66
2022/06/13 08:47:37;;;;;;;5.25;1.85;;;21.00;59.00;;;;;;5016707;28;20022;-66
2022/06/13 08:50:23;;;;;;;5.18;1.95;;;21.10;59.20;;;;;;5016676;28;20113;-66
2022/06/13 08:52:57;;;;;;;3.50;1.65;;;21.20;59.30;;;;;;5014054;28;20057;-66
2022/06/13 08:55:32;;;;;;;4.65;1.88;;;21.30;60.10;;;;;;5018040;28;20053;-66
2022/06/13 08:58:03;;;;;;;5.03;2.00;;;21.30;59.10;;;;;;5016245;28;20032;-66
2022/06/13 09:00:31;;;;;;;6.93;1.88;;;21.40;59.30;;;;;;5016703;28;20037;-66
2022/06/13 09:03:24;;;;;;;5.25;1.67;;;21.50;58.90;;;;;;5016575;28;20030;-66
2022/06/13 09:06:08;;;;;;;4.25;1.70;;;21.60;58.20;;;;;;5016857;28;20037;-66
2022/06/13 09:09:05;;;;;;;4.53;1.70;;;21.70;58.30;;;;;;5015154;28;20026;-66
2022/06/13 09:12:02;;;;;;;6.35;2.00;;;21.80;58.00;;;;;;5017363;28;20121;-66
2022/06/13 09:14:36;;;;;;;6.07;1.80;;;22.00;56.30;;;;;;5015644;28;20038;-66
2022/06/13 09:17:20;;;;;;;3.53;1.52;;;22.10;56.00;;;;;;5017602;28;20022;-66
2022/06/13 09:19:54;;;;;;;4.97;1.70;;;22.10;57.00;;;;;;5010294;28;20567;-66
2022/06/13 09:22:37;;;;;;;4.05;1.67;;;22.20;55.60;;;;;;5017800;28;20033;-66
2022/06/13 09:25:07;;;;;;;5.75;2.10;;;22.20;56.70;;;;;;5017779;28;20053;-66
2022/06/13 09:27:41;;;;;;;5.10;1.77;;;22.30;56.90;;;;;;5017949;28;20025;-67
2022/06/13 09:30:12;;;;;;;11.50;2.70;;;22.30;55.60;;;;;;5015375;28;20037;-66
2022/06/13 09:32:47;;;;;;;4.50;1.88;;;22.40;55.60;;;;;;5016150;28;20033;-66
2022/06/13 09:35:13;;;;;;;;;;;22.40;55.60;;;;;;5015345;28;20343;-67
2022/06/13 09:37:38;;;;;;;5.68;1.83;;;22.50;54.00;;;;;;5016182;28;19956;-66
2022/06/13 09:40:04;;;;;;;6.75;2.00;;;22.50;56.30;;;;;;5015702;28;20030;-66
2022/06/13 09:42:51;;;;;;;3.67;1.70;;;22.50;55.90;;;;;;5015925;28;20037;-67
2022/06/13 09:45:39;;;;;;;4.43;1.80;;;22.60;54.00;;;;;;5017088;28;20025;-66
2022/06/13 09:48:26;;;;;;;5.35;1.77;;;22.70;55.60;;;;;;5015050;28;20569;-67
2022/06/13 09:50:54;;;;;;;3.80;1.65;;;22.70;55.30;;;;;;5014402;28;20041;-66
2022/06/13 09:53:20;;;;;;;3.80;1.50;;;22.70;53.60;;;;;;5014501;28;20049;-66
2022/06/13 09:55:58;;;;;;;4.13;1.30;;;22.80;53.90;;;;;;5015290;28;20037;-66
2022/06/13 09:58:23;;;;;;;2.65;1.38;;;22.80;52.40;;;;;;5015756;28;20529;-66
2022/06/13 10:01:07;;;;;;;4.85;1.50;;;22.90;53.20;;;;;;5015993;28;20042;-66
2022/06/13 10:03:45;;;;;;;5.53;1.75;;;22.80;50.90;;;;;;5019099;28;20539;-67
2022/06/13 10:06:16;;;;;;;6.72;1.63;;;22.90;53.00;;;;;;5016134;28;20037;-66
2022/06/13 10:09:02;;;;;;;3.33;1.45;;;22.90;53.30;;;;;;5013674;28;20040;-67
2022/06/13 10:11:31;;;;;;;4.20;1.55;;;23.00;51.70;;;;;;5010278;28;20099;-67
2022/06/13 10:14:20;;;;;;;3.65;1.48;;;23.00;53.00;;;;;;5011371;28;20025;-66
2022/06/13 10:17:03;;;;;;;3.47;1.42;;;23.00;50.00;;;;;;5016064;28;20088;-66
2022/06/13 10:19:47;;;;;;;4.53;1.40;;;23.00;51.20;;;;;;5016971;28;20041;-67
2022/06/13 10:22:37;;;;;;;7.22;1.60;;;23.00;51.50;;;;;;5014227;28;20041;-67
2022/06/13 10:25:27;;;;;;;4.45;1.50;;;23.00;51.10;;;;;;5013510;28;20413;-66
2022/06/13 10:28:13;;;;;;;6.10;1.40;;;23.10;51.40;;;;;;5014319;28;20355;-67
2022/06/13 10:30:54;;;;;;;7.85;1.50;;;23.10;50.20;;;;;;5015026;28;20037;-67
2022/06/13 10:33:50;;;;;;;4.40;1.58;;;23.10;51.10;;;;;;5013852;28;20800;-66
2022/06/13 10:36:39;;;;;;;3.13;1.40;;;23.10;49.80;;;;;;5021755;28;20041;-66
2022/06/13 10:39:07;;;;;;;6.13;1.60;;;23.00;49.20;;;;;;5014448;28;20029;-66
2022/06/13 10:41:38;;;;;;;4.00;1.50;;;23.00;50.10;;;;;;5015493;28;20049;-67
2022/06/13 10:44:07;;;;;;;6.20;1.63;;;23.00;49.50;;;;;;5016968;28;20570;-67
2022/06/13 10:46:33;;;;;;;3.95;1.67;;;23.00;48.80;;;;;;5013881;28;20065;-67
2022/06/13 10:49:09;;;;;;;3.85;1.20;;;23.00;49.80;;;;;;5014754;28;20398;-67
2022/06/13 10:51:37;;;;;;;3.30;1.25;;;23.00;49.00;;;;;;5014508;28;20063;-67
2022/06/13 10:54:21;;;;;;;2.88;1.40;;;23.00;49.60;;;;;;5013783;28;20045;-67
2022/06/13 10:57:03;;;;;;;3.03;1.47;;;23.10;48.10;;;;;;5015063;28;20521;-66
2022/06/13 10:59:34;;;;;;;5.18;1.38;;;23.10;48.10;;;;;;5014642;28;20524;-67
2022/06/13 11:02:16;;;;;;;3.78;1.27;;;23.20;49.60;;;;;;5014430;28;20529;-66
2022/06/13 11:04:42;;;;;;;1.73;0.98;;;23.30;49.10;;;;;;5016486;28;20117;-67
2022/06/13 11:07:18;;;;;;;3.15;1.08;;;23.40;48.50;;;;;;5018885;28;20584;-66
2022/06/13 11:09:57;;;;;;;3.00;1.23;;;23.40;46.40;;;;;;5024816;28;20069;-66
2022/06/13 11:12:37;;;;;;;1.88;0.90;;;23.50;47.40;;;;;;5018426;28;20447;-66
2022/06/13 11:24:40;;;;;;;2.58;1.02;;;23.80;44.80;;;;;;5018716;28;20273;-66
2022/06/13 11:30:28;;;;;;;2.05;1.10;;;23.70;47.10;;;;;;5017954;28;20040;-66
2022/06/13 11:33:12;;;;;;;1.63;1.02;;;23.80;46.00;;;;;;5016681;28;20038;-67
2022/06/13 11:35:40;;;;;;;2.78;1.20;;;23.90;45.70;;;;;;5018341;28;20034;-66
2022/06/13 11:38:12;;;;;;;3.85;1.17;;;23.90;47.30;;;;;;5018705;28;20033;-66
2022/06/13 11:40:38;;;;;;;1.73;0.93;;;23.90;44.80;;;;;;5018240;28;20128;-66
2022/06/13 11:43:04;;;;;;;1.52;1.00;;;24.00;46.40;;;;;;5017985;28;20057;-67
2022/06/13 11:45:30;;;;;;;4.00;1.08;;;24.10;46.30;;;;;;5019674;28;20454;-66
2022/06/13 11:47:56;;;;;;;2.78;1.10;;;24.10;46.30;;;;;;5018620;28;20137;-66
2022/06/13 11:50:25;;;;;;;2.10;1.00;;;24.10;45.90;;;;;;5023365;28;20044;-66
2022/06/13 11:55:50;;;;;;;4.03;1.35;;;24.30;46.00;;;;;;5018381;28;20078;-67
2022/06/13 11:58:24;;;;;;;2.00;1.13;;;24.40;44.30;;;;;;5017231;28;20037;-67
2022/06/13 12:01:01;;;;;;;4.18;1.25;;;24.40;43.70;;;;;;5017383;28;20072;-67
2022/06/13 12:03:28;;;;;;;5.25;1.13;;;24.40;44.70;;;;;;5019154;28;20041;-67
2022/06/13 12:06:05;;;;;;;2.63;0.90;;;24.40;43.90;;;;;;5018691;28;20068;-67
2022/06/13 12:08:31;;;;;;;2.13;1.27;;;24.40;43.50;;;;;;5018128;28;20135;-67
2022/06/13 12:11:21;;;;;;;1.70;0.95;;;24.40;43.70;;;;;;5015090;28;20625;-67
2022/06/13 12:13:49;;;;;;;2.00;0.85;;;24.40;42.30;;;;;;5019155;28;20042;-67
2022/06/13 12:16:51;;;;;;;5.22;1.35;;;24.40;43.50;;;;;;5020479;28;20700;-67
2022/06/13 12:19:35;;;;;;;3.13;1.00;;;24.40;43.40;;;;;;5018571;28;20494;-67
2022/06/13 12:22:29;;;;;;;3.45;1.10;;;24.30;44.20;;;;;;5019940;28;20025;-66
2022/06/13 12:25:07;;;;;;;1.58;1.17;;;24.40;43.20;;;;;;5017965;28;20113;-67
2022/06/13 12:27:52;;;;;;;2.42;1.30;;;24.40;42.50;;;;;;5018747;28;20037;-67
2022/06/13 12:30:27;;;;;;;3.55;1.15;;;24.40;43.60;;;;;;5019136;28;20080;-66
2022/06/13 12:33:22;;;;;;;4.05;1.00;;;24.50;43.40;;;;;;5016827;28;20034;-67
2022/06/13 12:36:15;;;;;;;2.60;1.30;;;24.50;42.50;;;;;;5020547;28;20033;-66
2022/06/13 12:38:59;;;;;;;5.75;1.40;;;24.50;44.10;;;;;;5018848;28;20029;-66
2022/06/13 12:41:36;;;;;;;2.35;1.00;;;24.60;42.60;;;;;;5018087;28;20230;-66
2022/06/13 12:44:31;;;;;;;2.10;1.20;;;24.50;43.00;;;;;;5020927;28;20034;-67
2022/06/13 12:47:15;;;;;;;2.63;1.30;;;24.50;42.00;;;;;;5019302;28;20516;-66
2022/06/13 12:49:58;;;;;;;2.67;1.20;;;24.50;41.80;;;;;;5019576;28;20052;-67
2022/06/13 12:52:32;;;;;;;2.83;0.95;;;24.50;42.50;;;;;;5018544;28;20033;-67
2022/06/13 12:55:10;;;;;;;1.48;0.90;;;24.60;43.80;;;;;;5020573;28;20034;-67
2022/06/13 12:58:12;;;;;;;3.33;1.60;;;24.60;44.40;;;;;;5019048;28;20033;-66
2022/06/13 13:00:46;;;;;;;2.60;1.10;;;24.60;43.50;;;;;;5018169;28;20382;-67
2022/06/13 13:03:31;;;;;;;2.25;1.30;;;24.70;44.20;;;;;;5019000;28;20032;-67
2022/06/13 13:06:19;;;;;;;2.67;1.08;;;24.70;44.10;;;;;;5018566;28;20034;-67
2022/06/13 13:08:53;;;;;;;1.95;1.02;;;24.70;42.50;;;;;;5018304;28;20069;-67
2022/06/13 13:11:37;;;;;;;2.17;1.10;;;24.70;42.20;;;;;;5015143;28;20456;-67
2022/06/13 13:14:50;;;;;;;3.58;1.17;;;24.70;42.80;;;;;;5016746;28;20088;-67
2022/06/13 13:17:37;;;;;;;4.50;1.30;;;24.90;42.00;;;;;;5019967;28;20124;-67
2022/06/13 13:20:19;;;;;;;2.70;1.17;;;24.90;43.30;;;;;;5020025;28;20037;-66
2022/06/13 13:22:58;;;;;;;2.67;1.00;;;24.90;42.60;;;;;;5016967;28;20040;-67
2022/06/13 13:25:36;;;;;;;2.28;1.10;;;25.00;41.80;;;;;;5015652;28;20034;-67
2022/06/13 13:28:18;;;;;;;3.53;1.15;;;25.00;42.20;;;;;;5014118;28;20042;-67
2022/06/13 13:30:56;;;;;;;4.95;1.02;;;25.00;41.10;;;;;;5015997;28;20064;-67
2022/06/13 13:33:36;;;;;;;2.00;0.95;;;25.10;42.20;;;;;;5017759;28;20060;-67
2022/06/13 13:36:12;;;;;;;2.40;1.10;;;25.10;41.20;;;;;;5017301;28;20508;-67
2022/06/13 13:38:43;;;;;;;2.45;1.00;;;25.10;42.30;;;;;;5016091;28;20083;-67
2022/06/13 13:41:18;;;;;;;1.83;1.08;;;25.10;40.90;;;;;;5016011;28;20089;-67
2022/06/13 13:43:49;;;;;;;3.13;1.38;;;25.20;40.60;;;;;;5015652;28;20603;-67
2022/06/13 13:46:23;;;;;;;2.15;1.10;;;25.10;40.90;;;;;;5015637;28;20044;-66
2022/06/13 13:49:01;;;;;;;1.80;0.85;;;25.20;41.10;;;;;;5012775;28;20117;-67
2022/06/13 13:51:51;;;;;;;1.58;0.93;;;25.30;39.90;;;;;;5011620;28;20060;-67
2022/06/13 13:54:31;;;;;;;1.30;0.90;;;25.30;39.80;;;;;;5014055;28;20037;-67
2022/06/13 13:57:00;;;;;;;2.28;1.00;;;25.40;39.20;;;;;;5010759;28;20462;-67